createdAt,value
2024-03-05T00:01:53.798Z,2.83
2024-03-05T00:04:22.603Z,2.65
2024-03-05T00:06:51.363Z,2.77
2024-03-05T00:09:18.894Z,2.93
2024-03-05T00:11:47.595Z,2.70
2024-03-05T00:14:15.155Z,3.88
2024-03-05T00:16:43.125Z,2.77
2024-03-05T00:19:13.743Z,2.20
2024-03-05T00:21:41.246Z,2.67
2024-03-05T00:24:08.779Z,2.67
2024-03-05T00:26:37.960Z,2.67
2024-03-05T00:29:07.107Z,2.70
2024-03-05T00:31:36.780Z,2.73
2024-03-05T00:34:05.297Z,2.47
2024-03-05T00:36:32.906Z,3.33
2024-03-05T00:39:01.410Z,2.95
2024-03-05T00:41:28.759Z,3.08
2024-03-05T00:43:56.259Z,2.63
2024-03-05T00:46:24.923Z,3.07
2024-03-05T00:48:53.252Z,2.70
2024-03-05T00:51:21.473Z,2.53
2024-03-05T00:53:48.960Z,2.50
2024-03-05T00:56:17.520Z,3.20
2024-03-05T00:58:45.992Z,2.97
2024-03-05T01:01:14.485Z,3.07
2024-03-05T01:03:42.945Z,2.40
2024-03-05T01:06:11.306Z,2.27
2024-03-05T01:08:40.019Z,4.07
2024-03-05T01:11:10.627Z,2.80
2024-03-05T01:13:39.609Z,2.50
2024-03-05T01:16:10.764Z,2.53
2024-03-05T01:18:38.269Z,2.50
2024-03-05T01:21:07.557Z,2.63
2024-03-05T01:23:36.048Z,2.70
2024-03-05T01:26:04.278Z,2.27
2024-03-05T01:28:32.345Z,2.10
2024-03-05T01:31:01.799Z,2.67
2024-03-05T01:33:29.500Z,2.63
2024-03-05T01:36:01.401Z,2.40
2024-03-05T01:38:28.862Z,2.50
2024-03-05T01:40:57.961Z,2.07
2024-03-05T01:43:26.345Z,2.40
2024-03-05T01:45:55.048Z,2.40
2024-03-05T01:48:23.450Z,2.23
2024-03-05T01:50:51.165Z,2.50
2024-03-05T01:53:23.200Z,2.40
2024-03-05T01:55:55.660Z,2.17
2024-03-05T01:58:25.469Z,2.20
2024-03-05T02:00:54.524Z,2.40
2024-03-05T02:03:23.177Z,2.30
2024-03-05T02:05:52.114Z,2.10
2024-03-05T02:08:19.735Z,1.93
2024-03-05T02:10:51.693Z,2.37
2024-03-05T02:13:21.338Z,2.00
2024-03-05T02:15:50.283Z,2.70
2024-03-05T02:18:18.581Z,1.90
2024-03-05T02:20:47.174Z,2.33
2024-03-05T02:23:16.537Z,2.50
2024-03-05T02:25:44.519Z,2.47
2024-03-05T02:28:13.856Z,2.27
2024-03-05T02:30:42.470Z,2.30
2024-03-05T02:33:11.254Z,2.27
2024-03-05T02:35:39.823Z,2.20
2024-03-05T02:38:09.575Z,2.00
2024-03-05T02:40:38.018Z,2.23
2024-03-05T02:43:08.811Z,2.17
2024-03-05T02:45:36.399Z,2.20
2024-03-05T02:48:06.600Z,2.27
2024-03-05T02:50:37.854Z,2.40
2024-03-05T02:53:05.760Z,2.13
2024-03-05T02:55:40.037Z,2.20
2024-03-05T02:58:09.107Z,1.80
2024-03-05T03:00:36.589Z,2.00
2024-03-05T03:03:05.739Z,1.90
2024-03-05T03:05:33.226Z,1.93
2024-03-05T03:08:01.782Z,2.10
2024-03-05T03:10:30.197Z,2.40
2024-03-05T03:12:58.353Z,2.57
2024-03-05T03:15:26.230Z,2.07
2024-03-05T03:17:54.522Z,2.30
2024-03-05T03:20:23.486Z,2.10
2024-03-05T03:22:52.035Z,2.17
2024-03-05T03:25:19.500Z,2.13
2024-03-05T03:27:47.741Z,2.03
2024-03-05T03:30:23.502Z,2.07
2024-03-05T03:32:52.098Z,2.07
2024-03-05T03:35:20.954Z,2.17
2024-03-05T03:37:50.718Z,1.63
2024-03-05T03:40:25.221Z,2.20
2024-03-05T03:42:54.007Z,2.13
2024-03-05T03:45:24.036Z,2.27
2024-03-05T03:47:52.537Z,2.30
2024-03-05T03:50:21.952Z,1.70
2024-03-05T03:52:50.508Z,2.13
2024-03-05T03:55:20.343Z,2.10
2024-03-05T03:57:49.575Z,2.27
2024-03-05T04:00:20.976Z,1.97
2024-03-05T04:02:50.867Z,2.27
2024-03-05T04:05:18.292Z,1.90
2024-03-05T04:07:47.498Z,2.27
2024-03-05T04:10:17.498Z,2.43
2024-03-05T04:12:46.269Z,2.47
2024-03-05T04:15:14.060Z,2.13
2024-03-05T04:17:42.585Z,2.00
2024-03-05T04:20:13.272Z,1.90
2024-03-05T04:22:42.235Z,2.10
2024-03-05T04:25:10.466Z,2.30
2024-03-05T04:27:45.035Z,1.97
2024-03-05T04:30:17.042Z,1.50
2024-03-05T04:32:59.647Z,2.27
2024-03-05T04:35:30.549Z,2.20
2024-03-05T04:37:59.767Z,1.90
2024-03-05T04:40:28.032Z,2.17
2024-03-05T04:42:57.336Z,1.70
2024-03-05T04:45:25.803Z,1.90
2024-03-05T04:47:53.332Z,1.53
2024-03-05T04:50:24.024Z,2.07
2024-03-05T04:52:55.205Z,2.00
2024-03-05T04:55:27.617Z,1.67
2024-03-05T04:57:55.997Z,2.10
2024-03-05T05:00:25.641Z,2.37
2024-03-05T05:02:54.637Z,1.67
2024-03-05T05:05:27.349Z,2.13
2024-03-05T05:08:02.458Z,2.10
2024-03-05T05:10:30.844Z,2.00
2024-03-05T05:13:00.061Z,1.80
2024-03-05T05:15:28.737Z,2.07
2024-03-05T05:17:56.169Z,2.07
2024-03-05T05:20:24.658Z,2.03
2024-03-05T05:22:52.183Z,1.97
2024-03-05T05:25:23.201Z,2.10
2024-03-05T05:27:51.624Z,1.57
2024-03-05T05:30:24.105Z,1.90
2024-03-05T05:32:53.707Z,1.30
2024-03-05T05:35:22.198Z,1.90
2024-03-05T05:37:50.636Z,1.73
2024-03-05T05:40:21.195Z,1.70
2024-03-05T05:42:52.208Z,1.90
2024-03-05T05:45:23.611Z,2.30
2024-03-05T05:47:55.745Z,2.10
2024-03-05T05:50:27.901Z,2.20
2024-03-05T05:52:56.812Z,2.10
2024-03-05T05:55:28.678Z,1.67
2024-03-05T05:57:58.335Z,1.33
2024-03-05T06:00:35.467Z,2.10
2024-03-05T06:03:11.419Z,2.20
2024-03-05T06:05:40.544Z,2.50
2024-03-05T06:08:12.880Z,1.70
2024-03-05T06:10:46.142Z,1.90
2024-03-05T06:13:17.911Z,1.80
2024-03-05T06:15:45.235Z,2.10
2024-03-05T06:18:13.645Z,1.53
2024-03-05T06:20:43.416Z,2.00
2024-03-05T06:23:14.714Z,2.00
2024-03-05T06:25:43.284Z,1.93
2024-03-05T06:28:11.301Z,2.00
2024-03-05T06:30:40.352Z,2.30
2024-03-05T06:33:10.281Z,1.87
2024-03-05T06:35:39.450Z,1.90
2024-03-05T06:38:09.948Z,2.07
2024-03-05T06:40:39.062Z,1.80
2024-03-05T06:43:13.894Z,1.63
2024-03-05T06:45:45.235Z,1.80
2024-03-05T06:48:17.748Z,1.37
2024-03-05T06:50:53.389Z,1.57
2024-03-05T06:53:39.795Z,1.77
2024-03-05T06:56:26.321Z,1.70
2024-03-05T06:58:54.618Z,2.10
2024-03-05T07:01:23.140Z,1.90
2024-03-05T07:03:50.599Z,1.97
2024-03-05T07:06:20.425Z,2.10
2024-03-05T07:08:53.063Z,1.53
2024-03-05T07:11:22.078Z,1.60
2024-03-05T07:13:50.648Z,1.93
2024-03-05T07:16:20.663Z,1.50
2024-03-05T07:18:51.592Z,1.70
2024-03-05T07:21:22.181Z,1.40
2024-03-05T07:23:54.302Z,1.47
2024-03-05T07:26:23.539Z,1.70
2024-03-05T07:28:51.088Z,1.60
2024-03-05T07:31:20.841Z,1.60
2024-03-05T07:33:52.803Z,1.47
2024-03-05T07:36:23.024Z,1.70
2024-03-05T07:38:50.553Z,1.60
2024-03-05T07:41:29.875Z,1.70
2024-03-05T07:44:05.642Z,1.60
2024-03-05T07:46:35.268Z,1.47
2024-03-05T07:49:03.938Z,1.20
2024-03-05T07:51:41.438Z,1.40
2024-03-05T07:54:13.033Z,1.23
2024-03-05T07:56:41.918Z,1.87
2024-03-05T07:59:10.058Z,1.47
2024-03-05T08:01:38.467Z,1.27
2024-03-05T08:04:06.033Z,1.73
2024-03-05T08:06:33.575Z,1.47
2024-03-05T08:09:05.016Z,1.03
2024-03-05T08:11:33.625Z,1.40
2024-03-05T08:14:04.681Z,1.40
2024-03-05T08:16:36.030Z,1.47
2024-03-05T08:19:05.513Z,1.40
2024-03-05T08:21:35.114Z,1.43
2024-03-05T08:24:04.629Z,1.43
2024-03-05T08:26:33.249Z,1.50
2024-03-05T08:29:04.728Z,1.33
2024-03-05T08:31:33.361Z,1.23
2024-03-05T08:34:03.803Z,1.43
2024-03-05T08:36:35.308Z,1.20
2024-03-05T08:39:06.749Z,1.20
2024-03-05T08:41:36.155Z,1.40
2024-03-05T08:44:04.910Z,1.20
2024-03-05T08:46:33.396Z,1.50
2024-03-05T08:49:00.924Z,1.13
2024-03-05T08:51:29.119Z,1.40
2024-03-05T08:53:56.576Z,1.43
2024-03-05T08:56:25.076Z,1.40
2024-03-05T08:58:53.328Z,1.30
2024-03-05T09:01:22.109Z,1.57
2024-03-05T09:03:51.550Z,1.00
2024-03-05T09:06:18.860Z,1.50
2024-03-05T09:08:47.751Z,1.10
2024-03-05T09:11:16.256Z,1.30
2024-03-05T09:13:46.862Z,1.30
2024-03-05T09:16:25.181Z,1.23
2024-03-05T09:18:53.672Z,1.25
2024-03-05T09:21:22.214Z,1.10
2024-03-05T09:23:53.487Z,1.23
2024-03-05T09:26:23.248Z,1.37
2024-03-05T09:28:55.763Z,1.30
2024-03-05T09:31:26.530Z,1.30
2024-03-05T09:33:56.747Z,0.90
2024-03-05T09:36:25.699Z,1.00
2024-03-05T09:38:53.218Z,1.10
2024-03-05T09:41:22.163Z,1.20
2024-03-05T09:43:53.512Z,1.20
2024-03-05T09:46:25.594Z,1.00
2024-03-05T09:48:59.355Z,1.10
2024-03-05T09:51:34.811Z,1.00
2024-03-05T09:57:23.682Z,1.10
2024-03-05T09:59:54.716Z,0.90
2024-03-05T10:02:29.982Z,0.70
2024-03-05T10:05:00.362Z,0.80
2024-03-05T10:07:29.755Z,0.73
2024-03-05T10:10:09.710Z,1.50
2024-03-05T10:12:38.229Z,1.23
2024-03-05T10:15:32.042Z,1.00
2024-03-05T10:18:01.908Z,0.80
2024-03-05T10:20:31.599Z,0.90
2024-03-05T10:23:04.345Z,1.00
2024-03-05T10:25:37.387Z,0.80
2024-03-05T10:28:06.537Z,0.82
2024-03-05T10:30:38.447Z,0.80
2024-03-05T10:33:09.800Z,0.60
2024-03-05T10:38:26.949Z,0.70
2024-03-05T10:40:57.578Z,0.80
2024-03-05T10:43:27.512Z,0.93
2024-03-05T10:45:56.259Z,0.70
2024-03-05T10:48:27.430Z,0.85
2024-03-05T10:50:58.670Z,0.80
2024-03-05T10:53:28.995Z,0.90
2024-03-05T10:55:57.207Z,0.98
2024-03-05T10:58:45.008Z,0.90
2024-03-05T11:01:19.150Z,0.80
2024-03-05T11:03:49.355Z,1.00
2024-03-05T11:06:18.319Z,0.80
2024-03-05T11:08:46.388Z,0.73
2024-03-05T11:11:24.890Z,0.70
2024-03-05T11:13:56.762Z,0.82
2024-03-05T11:16:24.290Z,0.85
2024-03-05T11:18:54.230Z,0.73
2024-03-05T11:21:26.021Z,0.90
2024-03-05T11:24:04.050Z,0.98
2024-03-05T11:26:35.797Z,0.82
2024-03-05T11:29:29.158Z,0.90
2024-03-05T11:32:00.824Z,0.68
2024-03-05T11:34:29.676Z,0.77
2024-03-05T11:37:16.014Z,0.90
2024-03-05T11:39:50.411Z,0.80
2024-03-05T11:42:23.204Z,0.85
2024-03-05T11:45:13.495Z,0.70
2024-03-05T11:47:43.582Z,0.70
2024-03-05T11:50:13.305Z,0.77
2024-03-05T11:52:42.428Z,0.90
2024-03-05T11:55:11.872Z,0.90
2024-03-05T11:57:40.853Z,0.90
2024-03-05T12:00:20.065Z,0.73
2024-03-05T12:02:51.764Z,0.50
2024-03-05T12:05:21.339Z,0.68
2024-03-05T12:08:02.942Z,0.77
2024-03-05T12:10:33.136Z,0.75
2024-03-05T12:13:02.247Z,0.77
2024-03-05T12:15:36.403Z,0.40
2024-03-05T12:18:14.479Z,0.77
2024-03-05T12:20:44.885Z,0.50
2024-03-05T12:23:12.838Z,0.77
2024-03-05T12:25:43.788Z,0.65
2024-03-05T12:28:12.163Z,0.73
2024-03-05T12:30:40.256Z,0.80
2024-03-05T12:33:07.869Z,0.70
2024-03-05T12:35:36.739Z,0.93
2024-03-05T12:38:09.589Z,0.80
2024-03-05T12:40:38.228Z,0.75
2024-03-05T12:43:11.549Z,0.70
2024-03-05T12:45:39.513Z,0.70
2024-03-05T12:48:10.722Z,0.75
2024-03-05T12:50:40.938Z,0.67
2024-03-05T12:53:10.369Z,0.70
2024-03-05T12:55:40.568Z,0.80
2024-03-05T12:58:10.348Z,0.65
2024-03-05T13:00:41.716Z,0.63
2024-03-05T13:03:11.308Z,0.80
2024-03-05T13:05:40.523Z,0.85
2024-03-05T13:08:11.465Z,0.60
2024-03-05T13:10:39.215Z,0.80
2024-03-05T13:13:07.596Z,0.60
2024-03-05T13:15:35.257Z,0.80
2024-03-05T13:18:04.769Z,0.83
2024-03-05T13:20:33.548Z,0.70
2024-03-05T13:23:04.494Z,0.83
2024-03-05T13:25:33.065Z,0.90
2024-03-05T13:28:02.873Z,0.63
2024-03-05T13:30:33.288Z,0.73
2024-03-05T13:33:09.217Z,0.70
2024-03-05T13:35:38.559Z,0.80
2024-03-05T13:38:06.950Z,1.00
2024-03-05T13:40:35.535Z,1.10
2024-03-05T13:43:03.389Z,0.60
2024-03-05T13:45:32.273Z,0.70
2024-03-05T13:48:02.504Z,0.80
2024-03-05T13:50:31.010Z,0.80
2024-03-05T13:52:59.074Z,0.85
2024-03-05T13:55:29.820Z,0.70
2024-03-05T13:58:00.565Z,0.73
2024-03-05T14:00:33.665Z,1.02
2024-03-05T14:03:02.438Z,0.77
2024-03-05T14:05:29.992Z,0.70
2024-03-05T14:07:58.726Z,0.70
2024-03-05T14:10:27.951Z,0.90
2024-03-05T14:12:57.288Z,0.93
2024-03-05T14:15:24.844Z,0.83
2024-03-05T14:17:53.453Z,0.70
2024-03-05T14:20:27.317Z,0.83
2024-03-05T14:22:55.895Z,0.97
2024-03-05T14:25:25.265Z,0.90
2024-03-05T14:27:53.781Z,1.20
2024-03-05T14:30:22.621Z,1.07
2024-03-05T14:32:51.202Z,0.80
2024-03-05T14:35:21.682Z,0.80
2024-03-05T14:37:53.210Z,0.73
2024-03-05T14:40:22.428Z,0.90
2024-03-05T14:42:51.745Z,0.90
2024-03-05T14:45:19.930Z,1.00
2024-03-05T14:47:48.424Z,0.90
2024-03-05T14:50:19.409Z,1.33
2024-03-05T14:52:46.975Z,0.67
2024-03-05T14:55:14.895Z,0.90
2024-03-05T14:57:46.265Z,1.10
2024-03-05T15:00:14.872Z,1.10
2024-03-05T15:02:49.550Z,0.90
2024-03-05T15:05:20.729Z,1.73
2024-03-05T15:07:50.263Z,0.80
2024-03-05T15:10:19.662Z,1.00
2024-03-05T15:12:48.990Z,0.90
2024-03-05T15:15:19.046Z,0.80
2024-03-05T15:17:49.096Z,1.00
2024-03-05T15:20:20.299Z,1.00
2024-03-05T15:22:53.950Z,0.80
2024-03-05T15:25:23.084Z,0.80
2024-03-05T15:28:01.015Z,0.90
2024-03-05T15:30:34.058Z,1.00
2024-03-05T15:33:03.039Z,0.93
2024-03-05T15:35:32.463Z,0.90
2024-03-05T15:38:02.176Z,1.10
2024-03-05T15:40:30.798Z,0.93
2024-03-05T15:42:59.655Z,1.17
2024-03-05T15:45:33.180Z,0.80
2024-03-05T15:48:02.859Z,1.10
2024-03-05T15:50:33.395Z,1.10
2024-03-05T15:53:03.469Z,1.00
2024-03-05T15:55:31.829Z,1.20
2024-03-05T15:58:03.892Z,0.80
2024-03-05T16:00:37.243Z,0.83
2024-03-05T16:03:06.937Z,0.97
2024-03-05T16:05:47.245Z,1.10
2024-03-05T16:08:25.578Z,1.07
2024-03-05T16:10:57.505Z,1.03
2024-03-05T16:13:26.658Z,0.70
2024-03-05T16:15:55.093Z,0.80
2024-03-05T16:18:24.900Z,1.00
2024-03-05T16:20:54.475Z,1.00
2024-03-05T16:23:22.985Z,1.20
2024-03-05T16:25:53.395Z,0.90
2024-03-05T16:28:22.719Z,1.07
2024-03-05T16:30:50.274Z,1.20
2024-03-05T16:33:18.658Z,1.00
2024-03-05T16:35:48.436Z,0.77
2024-03-05T16:38:16.918Z,0.90
2024-03-05T16:40:45.299Z,1.20
2024-03-05T16:43:15.128Z,0.97
2024-03-05T16:45:43.897Z,1.07
2024-03-05T16:48:11.501Z,1.10
2024-03-05T16:50:40.688Z,1.07
2024-03-05T16:53:11.171Z,1.00
2024-03-05T16:55:39.842Z,1.17
2024-03-05T16:58:12.869Z,1.00
2024-03-05T17:00:49.410Z,1.10
2024-03-05T17:03:20.021Z,1.70
2024-03-05T17:05:48.571Z,1.30
2024-03-05T17:08:21.280Z,1.30
2024-03-05T17:10:51.927Z,1.17
2024-03-05T17:13:25.085Z,1.33
2024-03-05T17:15:57.513Z,1.30
2024-03-05T17:18:25.633Z,1.70
2024-03-05T17:20:56.326Z,1.57
2024-03-05T17:23:26.872Z,1.30
2024-03-05T17:25:58.301Z,1.33
2024-03-05T17:28:33.245Z,1.13
2024-03-05T17:31:01.769Z,1.63
2024-03-05T17:33:31.487Z,1.47
2024-03-05T17:36:02.605Z,1.47
2024-03-05T17:38:33.487Z,1.93
2024-03-05T17:41:04.510Z,2.03
2024-03-05T17:43:34.242Z,2.77
2024-03-05T17:46:04.178Z,2.20
2024-03-05T17:48:32.674Z,2.83
2024-03-05T17:51:01.122Z,2.90
2024-03-05T17:53:28.559Z,1.83
2024-03-05T17:55:57.878Z,2.00
2024-03-05T17:58:27.511Z,1.30
2024-03-05T18:00:57.132Z,1.67
2024-03-05T18:03:26.708Z,1.67
2024-03-05T18:05:54.613Z,2.33
2024-03-05T18:08:24.070Z,1.27
2024-03-05T18:10:52.181Z,1.63
2024-03-05T18:13:20.494Z,1.67
2024-03-05T18:15:50.768Z,1.47
2024-03-05T18:18:20.291Z,1.73
2024-03-05T18:20:49.540Z,1.50
2024-03-05T18:23:17.096Z,1.80
2024-03-05T18:25:47.243Z,1.80
2024-03-05T18:28:22.035Z,1.63
2024-03-05T18:30:51.176Z,1.70
2024-03-05T18:33:20.935Z,1.67
2024-03-05T18:35:49.248Z,1.47
2024-03-05T18:38:24.850Z,1.77
2024-03-05T18:41:01.088Z,1.60
2024-03-05T18:43:30.122Z,1.50
2024-03-05T18:46:01.283Z,1.90
2024-03-05T18:48:29.265Z,1.53
2024-03-05T18:50:59.457Z,1.40
2024-03-05T18:53:36.209Z,1.80
2024-03-05T18:56:14.091Z,1.63
2024-03-05T18:58:43.520Z,1.67
2024-03-05T19:01:11.924Z,1.50
2024-03-05T19:03:41.053Z,1.57
2024-03-05T19:06:08.723Z,1.57
2024-03-05T19:08:36.310Z,1.60
2024-03-05T19:11:03.916Z,1.60
2024-03-05T19:13:32.945Z,1.30
2024-03-05T19:16:02.273Z,1.40
2024-03-05T19:18:29.830Z,1.50
2024-03-05T19:21:00.666Z,1.63
2024-03-05T19:23:30.448Z,1.60
2024-03-05T19:25:58.044Z,1.40
2024-03-05T19:28:27.632Z,1.13
2024-03-05T19:30:56.739Z,1.30
2024-03-05T19:33:25.130Z,1.47
2024-03-05T19:35:54.472Z,1.43
2024-03-05T19:38:22.735Z,1.60
2024-03-05T19:40:50.141Z,2.23
2024-03-05T19:43:17.755Z,1.43
2024-03-05T19:45:47.474Z,1.60
2024-03-05T19:48:15.728Z,1.60
2024-03-05T19:50:45.171Z,1.50
2024-03-05T19:53:12.820Z,1.50
2024-03-05T19:55:41.265Z,1.40
2024-03-05T19:58:09.551Z,1.50
2024-03-05T20:00:37.868Z,1.37
2024-03-05T20:03:06.342Z,1.57
2024-03-05T20:05:34.726Z,1.73
2024-03-05T20:08:04.376Z,1.40
2024-03-05T20:10:33.012Z,1.43
2024-03-05T20:13:01.704Z,1.60
2024-03-05T20:15:29.361Z,1.80
2024-03-05T20:17:56.976Z,1.40
2024-03-05T20:20:26.590Z,1.40
2024-03-05T20:22:55.371Z,1.30
2024-03-05T20:25:24.624Z,1.37
2024-03-05T20:27:53.315Z,1.00
2024-03-05T20:30:23.208Z,1.27
2024-03-05T20:32:52.865Z,1.23
2024-03-05T20:35:21.719Z,1.23
2024-03-05T20:37:50.373Z,1.00
2024-03-05T20:40:23.122Z,1.13
2024-03-05T20:42:51.664Z,1.30
2024-03-05T20:45:19.979Z,1.63
2024-03-05T20:47:48.673Z,1.20
2024-03-05T20:50:17.100Z,1.13
2024-03-05T20:52:45.903Z,1.00
2024-03-05T20:55:13.681Z,1.50
2024-03-05T20:57:44.788Z,1.27
2024-03-05T21:00:17.703Z,1.20
2024-03-05T21:02:46.287Z,1.03
2024-03-05T21:05:16.554Z,1.17
2024-03-05T21:07:45.630Z,1.10
2024-03-05T21:10:15.084Z,1.10
2024-03-05T21:12:44.386Z,1.30
2024-03-05T21:15:12.489Z,1.10
2024-03-05T21:17:41.719Z,1.20
2024-03-05T21:20:14.458Z,1.07
2024-03-05T21:22:43.819Z,1.03
2024-03-05T21:25:12.785Z,1.10
2024-03-05T21:27:42.103Z,0.90
2024-03-05T21:30:13.682Z,0.93
2024-03-05T21:32:43.477Z,0.90
2024-03-05T21:35:12.841Z,1.30
2024-03-05T21:37:43.359Z,1.40
2024-03-05T21:40:15.212Z,1.13
2024-03-05T21:42:45.261Z,0.87
2024-03-05T21:45:16.323Z,0.70
2024-03-05T21:47:48.547Z,1.20
2024-03-05T21:50:17.490Z,1.20
2024-03-05T21:52:47.311Z,0.87
2024-03-05T21:55:16.859Z,1.50
2024-03-05T21:57:45.663Z,1.00
2024-03-05T22:00:14.835Z,1.00
2024-03-05T22:02:43.342Z,1.10
2024-03-05T22:05:16.464Z,0.90
2024-03-05T22:07:44.917Z,0.97
2024-03-05T22:10:13.147Z,0.90
2024-03-05T22:12:42.575Z,1.10
2024-03-05T22:15:12.453Z,0.83
2024-03-05T22:17:40.859Z,0.80
2024-03-05T22:20:13.266Z,1.07
2024-03-05T22:22:41.313Z,0.80
2024-03-05T22:25:09.157Z,0.80
2024-03-05T22:27:38.668Z,0.90
2024-03-05T22:30:09.188Z,0.80
2024-03-05T22:32:37.239Z,1.00
2024-03-05T22:35:06.710Z,0.87
2024-03-05T22:37:35.373Z,0.90
2024-03-05T22:40:04.133Z,1.40
2024-03-05T22:42:31.680Z,0.97
2024-03-05T22:45:00.707Z,1.00
2024-03-05T22:47:30.028Z,1.00
2024-03-05T22:49:58.866Z,1.13
2024-03-05T22:52:27.458Z,0.80
2024-03-05T22:54:55.045Z,1.23
2024-03-05T22:57:23.575Z,1.00
2024-03-05T22:59:53.561Z,0.80
2024-03-05T23:02:24.444Z,0.90
2024-03-05T23:04:55.008Z,0.93
2024-03-05T23:07:24.719Z,1.00
2024-03-05T23:09:52.206Z,1.00
2024-03-05T23:12:19.754Z,0.80
2024-03-05T23:14:48.119Z,0.83
2024-03-05T23:19:51.406Z,1.13
2024-03-05T23:22:19.633Z,1.10
2024-03-05T23:24:47.056Z,0.83
2024-03-05T23:27:14.661Z,0.80
2024-03-05T23:29:43.196Z,1.03
2024-03-05T23:32:12.377Z,0.80
2024-03-05T23:34:40.888Z,0.90
2024-03-05T23:37:10.191Z,0.60
2024-03-05T23:39:38.672Z,0.70
2024-03-05T23:42:08.133Z,0.80
2024-03-05T23:44:36.389Z,0.90
2024-03-05T23:47:03.954Z,0.80
2024-03-05T23:49:31.569Z,0.80
2024-03-05T23:52:00.042Z,0.80
2024-03-05T23:54:28.292Z,0.80
2024-03-05T23:56:56.666Z,0.60
2024-03-05T23:59:26.182Z,0.87
